createdAt,value
2018-07-26T00:00:58.869Z,24.10
2018-07-26T00:03:27.662Z,24.10
2018-07-26T00:05:56.525Z,24.00
2018-07-26T00:08:25.288Z,24.00
2018-07-26T00:10:54.042Z,23.90
2018-07-26T00:13:22.818Z,23.90
2018-07-26T00:15:51.614Z,23.90
2018-07-26T00:18:20.406Z,23.80
2018-07-26T00:20:49.162Z,23.80
2018-07-26T00:23:17.865Z,23.70
2018-07-26T00:25:46.637Z,23.60
2018-07-26T00:28:15.413Z,23.50
2018-07-26T00:30:44.213Z,23.50
2018-07-26T00:33:13.052Z,23.40
2018-07-26T00:35:41.851Z,23.40
2018-07-26T00:38:10.634Z,23.30
2018-07-26T00:40:39.372Z,23.30
2018-07-26T00:43:08.121Z,23.30
2018-07-26T00:45:36.906Z,23.20
2018-07-26T00:48:05.753Z,23.20
2018-07-26T00:50:34.505Z,23.20
2018-07-26T00:53:03.287Z,23.20
2018-07-26T00:55:31.974Z,23.10
2018-07-26T00:58:00.861Z,23.10
2018-07-26T01:00:29.617Z,23.00
2018-07-26T01:02:58.431Z,23.00
2018-07-26T01:05:27.181Z,23.00
2018-07-26T01:07:55.840Z,22.90
2018-07-26T01:10:24.571Z,22.90
2018-07-26T01:12:53.305Z,22.80
2018-07-26T01:15:22.086Z,22.80
2018-07-26T01:17:50.874Z,22.80
2018-07-26T01:20:19.574Z,22.80
2018-07-26T01:22:48.374Z,22.70
2018-07-26T01:25:17.225Z,22.70
2018-07-26T01:27:45.978Z,22.70
2018-07-26T01:30:24.513Z,22.60
2018-07-26T01:32:53.266Z,22.60
2018-07-26T01:35:21.994Z,22.60
2018-07-26T01:37:50.794Z,22.50
2018-07-26T01:40:19.570Z,22.50
2018-07-26T01:42:59.699Z,22.40
2018-07-26T01:45:28.501Z,22.40
2018-07-26T01:47:57.216Z,22.30
2018-07-26T01:50:26.090Z,22.30
2018-07-26T01:52:54.793Z,22.20
2018-07-26T01:55:23.576Z,22.20
2018-07-26T01:57:52.441Z,22.20
2018-07-26T02:00:21.201Z,22.20
2018-07-26T02:02:49.941Z,22.10
2018-07-26T02:05:18.744Z,22.10
2018-07-26T02:07:47.651Z,22.10
2018-07-26T02:10:16.430Z,22.00
2018-07-26T02:12:45.198Z,22.00
2018-07-26T02:15:13.877Z,22.00
2018-07-26T02:17:46.510Z,22.00
2018-07-26T02:20:20.980Z,21.90
2018-07-26T02:22:49.739Z,21.90
2018-07-26T02:25:18.477Z,21.80
2018-07-26T02:27:47.253Z,21.80
2018-07-26T02:30:16.027Z,21.70
2018-07-26T02:32:44.790Z,21.70
2018-07-26T02:35:13.570Z,21.70
2018-07-26T02:37:42.310Z,21.70
2018-07-26T02:40:11.278Z,21.70
2018-07-26T02:42:39.985Z,21.60
2018-07-26T02:45:08.822Z,21.60
2018-07-26T02:47:37.641Z,21.60
2018-07-26T02:50:06.500Z,21.60
2018-07-26T02:52:35.447Z,21.50
2018-07-26T02:55:04.166Z,21.50
2018-07-26T02:57:33.221Z,21.50
2018-07-26T03:00:02.018Z,21.40
2018-07-26T03:02:30.778Z,21.40
2018-07-26T03:04:59.640Z,21.30
2018-07-26T03:07:28.386Z,21.30
2018-07-26T03:09:57.129Z,21.30
2018-07-26T03:12:26.315Z,21.30
2018-07-26T03:14:55.114Z,21.30
2018-07-26T03:17:23.873Z,21.30
2018-07-26T03:19:52.571Z,21.20
2018-07-26T03:22:21.392Z,21.20
2018-07-26T03:24:50.161Z,21.20
2018-07-26T03:27:18.943Z,21.10
2018-07-26T03:29:47.656Z,21.10
2018-07-26T03:32:16.420Z,21.00
2018-07-26T03:34:45.233Z,21.00
2018-07-26T03:37:13.984Z,21.00
2018-07-26T03:39:42.718Z,21.00
2018-07-26T03:42:11.577Z,21.00
2018-07-26T03:44:40.305Z,21.00
2018-07-26T03:47:09.021Z,20.90
2018-07-26T03:49:37.740Z,20.90
2018-07-26T03:52:06.452Z,20.90
2018-07-26T03:54:35.325Z,20.80
2018-07-26T03:57:04.015Z,20.90
2018-07-26T03:59:32.833Z,20.80
2018-07-26T04:02:01.583Z,20.80
2018-07-26T04:04:30.389Z,20.80
2018-07-26T04:06:59.189Z,20.80
2018-07-26T04:09:42.270Z,20.80
2018-07-26T04:12:11.008Z,20.80
2018-07-26T04:14:39.784Z,20.80
2018-07-26T04:17:08.570Z,20.70
2018-07-26T04:19:37.286Z,20.70
2018-07-26T04:22:06.085Z,20.70
2018-07-26T04:24:34.833Z,20.70
2018-07-26T04:27:03.688Z,20.70
2018-07-26T04:29:32.432Z,20.70
2018-07-26T04:32:01.211Z,20.70
2018-07-26T04:34:29.952Z,20.70
2018-07-26T04:36:58.874Z,20.80
2018-07-26T04:39:35.418Z,20.80
2018-07-26T04:42:04.185Z,20.80
2018-07-26T04:44:32.971Z,20.80
2018-07-26T04:47:01.890Z,20.80
2018-07-26T04:49:30.739Z,20.80
2018-07-26T04:51:59.493Z,20.80
2018-07-26T04:54:28.276Z,20.80
2018-07-26T04:56:57.040Z,20.80
2018-07-26T04:59:25.816Z,20.80
2018-07-26T05:01:54.602Z,20.80
2018-07-26T05:04:23.412Z,20.90
2018-07-26T05:06:52.190Z,20.90
2018-07-26T05:09:20.955Z,20.90
2018-07-26T05:11:49.705Z,20.90
2018-07-26T05:14:18.485Z,20.90
2018-07-26T05:16:48.557Z,21.00
2018-07-26T05:19:18.593Z,21.00
2018-07-26T05:21:49.857Z,21.00
2018-07-26T05:24:19.399Z,21.10
2018-07-26T05:26:48.113Z,21.10
2018-07-26T05:29:16.829Z,21.10
2018-07-26T05:31:45.640Z,21.10
2018-07-26T05:34:21.273Z,21.10
2018-07-26T05:36:50.116Z,21.20
2018-07-26T05:39:19.082Z,21.30
2018-07-26T05:41:47.884Z,21.30
2018-07-26T05:44:16.642Z,21.30
2018-07-26T05:46:45.406Z,21.40
2018-07-26T05:49:16.334Z,21.40
2018-07-26T05:51:45.058Z,21.50
2018-07-26T05:54:16.014Z,21.50
2018-07-26T05:56:45.860Z,21.60
2018-07-26T05:59:15.117Z,21.60
2018-07-26T06:01:43.872Z,21.60
2018-07-26T06:06:59.577Z,21.80
2018-07-26T06:09:30.500Z,21.80
2018-07-26T06:12:01.378Z,21.80
2018-07-26T06:14:30.260Z,21.90
2018-07-26T06:16:58.937Z,22.00
2018-07-26T06:19:27.869Z,22.00
2018-07-26T06:21:57.824Z,22.10
2018-07-26T06:24:26.629Z,22.20
2018-07-26T06:26:55.418Z,22.20
2018-07-26T06:29:24.173Z,22.30
2018-07-26T06:31:52.922Z,22.40
2018-07-26T06:34:21.658Z,22.40
2018-07-26T06:36:50.585Z,22.50
2018-07-26T06:39:20.361Z,22.60
2018-07-26T06:41:49.269Z,22.60
2018-07-26T06:44:18.118Z,22.70
2018-07-26T06:46:46.765Z,22.80
2018-07-26T06:49:15.514Z,22.90
2018-07-26T06:51:44.236Z,23.00
2018-07-26T06:54:12.916Z,23.10
2018-07-26T06:56:41.701Z,23.20
2018-07-26T06:59:21.261Z,23.30
2018-07-26T07:01:50.001Z,23.40
2018-07-26T07:04:18.817Z,23.50
2018-07-26T07:06:47.589Z,23.60
2018-07-26T07:09:16.333Z,23.80
2018-07-26T07:11:45.130Z,23.80
2018-07-26T07:14:13.954Z,23.90
2018-07-26T07:16:42.675Z,24.00
2018-07-26T07:19:11.337Z,24.10
2018-07-26T07:21:40.149Z,24.20
2018-07-26T07:24:09.078Z,24.30
2018-07-26T07:26:37.853Z,24.40
2018-07-26T07:29:06.657Z,24.50
2018-07-26T07:31:35.456Z,24.60
2018-07-26T07:34:04.293Z,24.70
2018-07-26T07:36:33.013Z,24.80
2018-07-26T07:39:01.802Z,24.90
2018-07-26T07:41:30.726Z,25.00
2018-07-26T07:43:59.467Z,25.10
2018-07-26T07:46:28.217Z,25.20
2018-07-26T07:48:56.907Z,25.30
2018-07-26T07:53:54.047Z,25.40
2018-07-26T07:56:22.906Z,25.50
2018-07-26T07:58:51.650Z,25.50
2018-07-26T08:01:20.524Z,25.60
2018-07-26T08:03:55.977Z,25.70
2018-07-26T08:06:24.819Z,25.80
2018-07-26T08:08:53.574Z,25.80
2018-07-26T08:11:22.384Z,25.90
2018-07-26T08:14:09.413Z,26.00
2018-07-26T08:16:38.201Z,26.10
2018-07-26T08:19:07.113Z,26.20
2018-07-26T08:21:40.841Z,26.30
2018-07-26T08:24:09.637Z,26.50
2018-07-26T08:26:38.405Z,26.50
2018-07-26T08:29:07.117Z,26.60
2018-07-26T08:31:35.875Z,26.60
2018-07-26T08:34:04.650Z,26.60
2018-07-26T08:36:33.497Z,26.70
2018-07-26T08:39:02.247Z,26.80
2018-07-26T08:41:30.961Z,26.90
2018-07-26T08:43:59.734Z,27.00
2018-07-26T08:49:19.993Z,27.20
2018-07-26T08:51:59.593Z,27.30
2018-07-26T08:54:28.412Z,27.40
2018-07-26T08:59:43.854Z,27.60
2018-07-26T09:02:12.626Z,27.70
2018-07-26T09:04:41.419Z,27.80
2018-07-26T09:07:10.386Z,27.80
2018-07-26T09:09:39.174Z,27.80
2018-07-26T09:12:09.941Z,27.90
2018-07-26T09:14:38.728Z,28.00
2018-07-26T09:17:07.560Z,28.10
2018-07-26T09:19:36.352Z,28.20
2018-07-26T09:22:05.084Z,28.30
2018-07-26T09:24:33.893Z,28.40
2018-07-26T09:27:02.696Z,28.50
2018-07-26T09:29:31.464Z,28.60
2018-07-26T09:32:00.238Z,28.70
2018-07-26T09:34:29.005Z,28.70
2018-07-26T09:36:57.749Z,28.80
2018-07-26T09:39:26.552Z,28.80
2018-07-26T09:42:07.847Z,28.90
2018-07-26T09:44:36.609Z,29.00
2018-07-26T09:47:09.570Z,29.10
2018-07-26T09:49:38.396Z,29.10
2018-07-26T09:54:35.589Z,29.30
2018-07-26T09:57:14.075Z,29.30
2018-07-26T09:59:42.854Z,29.40
2018-07-26T10:02:11.687Z,29.50
2018-07-26T10:04:40.437Z,29.60
2018-07-26T10:07:09.485Z,29.70
2018-07-26T10:09:38.365Z,29.70
2018-07-26T10:12:07.217Z,29.70
2018-07-26T10:14:48.038Z,29.90
2018-07-26T10:17:16.842Z,30.00
2018-07-26T10:19:45.593Z,30.00
2018-07-26T10:22:14.329Z,30.10
2018-07-26T10:24:43.224Z,30.10
2018-07-26T10:27:12.026Z,30.20
2018-07-26T10:29:40.906Z,30.20
2018-07-26T10:32:10.653Z,30.10
2018-07-26T10:34:39.373Z,30.10
2018-07-26T10:37:08.145Z,30.20
2018-07-26T10:39:36.941Z,30.40
2018-07-26T10:42:12.427Z,30.50
2018-07-26T10:44:41.223Z,30.60
2018-07-26T10:47:10.046Z,30.60
2018-07-26T10:49:42.897Z,30.70
2018-07-26T10:52:11.628Z,30.90
2018-07-26T10:54:40.449Z,30.90
2018-07-26T10:57:15.233Z,31.00
2018-07-26T11:02:41.217Z,31.20
2018-07-26T11:05:10.354Z,31.30
2018-07-26T11:07:39.573Z,31.50
2018-07-26T11:10:10.045Z,31.50
2018-07-26T11:12:39.016Z,31.40
2018-07-26T11:15:12.634Z,31.50
2018-07-26T11:20:10.182Z,31.70
2018-07-26T11:22:50.001Z,31.80
2018-07-26T11:25:18.744Z,32.00
2018-07-26T11:27:47.777Z,32.00
2018-07-26T11:30:28.176Z,32.00
2018-07-26T11:32:57.009Z,32.10
2018-07-26T11:35:25.857Z,32.10
2018-07-26T11:37:54.681Z,32.10
2018-07-26T11:40:23.406Z,32.10
2018-07-26T11:42:52.385Z,32.10
2018-07-26T11:45:26.226Z,32.20
2018-07-26T11:47:55.004Z,32.20
2018-07-26T11:50:30.529Z,32.30
2018-07-26T11:52:59.322Z,32.30
2018-07-26T11:55:36.897Z,32.30
2018-07-26T11:58:05.710Z,32.30
2018-07-26T12:00:34.690Z,32.40
2018-07-26T12:03:14.285Z,32.50
2018-07-26T12:05:43.075Z,32.60
2018-07-26T12:08:11.906Z,32.70
2018-07-26T12:10:46.747Z,32.70
2018-07-26T12:13:15.511Z,32.90
2018-07-26T12:15:50.409Z,33.00
2018-07-26T12:20:47.725Z,33.20
2018-07-26T12:23:16.617Z,33.20
2018-07-26T12:25:45.394Z,33.10
2018-07-26T12:28:14.244Z,33.10
2018-07-26T12:30:43.283Z,33.10
2018-07-26T12:33:12.125Z,33.10
2018-07-26T12:35:40.850Z,33.00
2018-07-26T12:38:09.802Z,32.90
2018-07-26T12:40:38.630Z,32.70
2018-07-26T12:43:13.809Z,32.80
2018-07-26T12:45:50.365Z,32.90
2018-07-26T12:48:19.141Z,33.00
2018-07-26T12:50:47.923Z,33.30
2018-07-26T12:53:16.629Z,33.60
2018-07-26T12:55:45.366Z,33.80
2018-07-26T12:58:14.113Z,34.10
2018-07-26T13:00:42.854Z,34.30
2018-07-26T13:03:11.644Z,34.40
2018-07-26T13:05:41.055Z,34.50
2018-07-26T13:08:09.754Z,34.50
2018-07-26T13:10:38.700Z,34.50
2018-07-26T13:13:07.494Z,34.40
2018-07-26T13:15:42.284Z,34.30
2018-07-26T13:18:11.144Z,34.40
2018-07-26T13:20:39.941Z,34.40
2018-07-26T13:23:08.526Z,34.50
2018-07-26T13:25:43.313Z,34.70
2018-07-26T13:28:12.261Z,34.80
2018-07-26T13:30:41.033Z,34.90
2018-07-26T13:33:09.765Z,35.00
2018-07-26T13:35:38.529Z,35.00
2018-07-26T13:38:07.321Z,35.10
2018-07-26T13:40:36.083Z,35.00
2018-07-26T13:43:05.689Z,34.80
2018-07-26T13:45:34.535Z,34.50
2018-07-26T13:48:03.204Z,34.40
2018-07-26T13:50:31.960Z,34.30
2018-07-26T13:53:00.737Z,34.40
2018-07-26T13:55:29.452Z,34.60
2018-07-26T13:57:58.284Z,34.80
2018-07-26T14:00:35.901Z,35.00
2018-07-26T14:03:04.621Z,35.20
2018-07-26T14:05:33.375Z,35.30
2018-07-26T14:08:02.162Z,35.50
2018-07-26T14:10:30.966Z,35.50
2018-07-26T14:13:03.861Z,35.30
2018-07-26T14:15:32.559Z,35.10
2018-07-26T14:18:07.537Z,34.80
2018-07-26T14:20:36.321Z,34.50
2018-07-26T14:23:05.158Z,34.30
2018-07-26T14:25:34.086Z,34.10
2018-07-26T14:28:02.753Z,34.10
2018-07-26T14:30:31.613Z,34.00
2018-07-26T14:33:00.394Z,33.90
2018-07-26T14:35:31.385Z,34.00
2018-07-26T14:38:00.168Z,34.20
2018-07-26T14:40:28.931Z,34.40
2018-07-26T14:43:04.449Z,34.60
2018-07-26T14:45:33.177Z,34.80
2018-07-26T14:48:01.982Z,34.90
2018-07-26T14:50:30.770Z,35.00
2018-07-26T14:52:59.599Z,35.10
2018-07-26T14:55:35.990Z,35.20
2018-07-26T14:58:04.726Z,35.40
2018-07-26T15:00:33.528Z,35.50
2018-07-26T15:03:23.549Z,35.60
2018-07-26T15:05:58.616Z,35.60
2018-07-26T15:08:27.317Z,35.70
2018-07-26T15:11:02.032Z,35.70
2018-07-26T15:13:30.869Z,35.80
2018-07-26T15:15:59.545Z,35.90
2018-07-26T15:18:28.406Z,36.00
2018-07-26T15:20:57.333Z,36.10
2018-07-26T15:23:26.066Z,36.10
2018-07-26T15:25:54.996Z,36.10
2018-07-26T15:28:23.818Z,36.00
2018-07-26T15:30:52.729Z,35.80
2018-07-26T15:33:21.482Z,35.60
2018-07-26T15:35:50.445Z,35.60
2018-07-26T15:38:19.489Z,35.70
2018-07-26T15:40:48.578Z,35.80
2018-07-26T15:43:22.234Z,35.80
2018-07-26T15:45:51.075Z,35.80
2018-07-26T15:48:19.846Z,35.80
2018-07-26T15:50:53.514Z,35.90
2018-07-26T15:53:22.461Z,35.90
2018-07-26T15:55:51.254Z,36.00
2018-07-26T15:58:19.961Z,36.10
2018-07-26T16:00:48.849Z,36.10
2018-07-26T16:03:17.672Z,36.20
2018-07-26T16:05:46.362Z,36.50
2018-07-26T16:08:15.121Z,37.20
2018-07-26T16:10:44.017Z,38.50
2018-07-26T16:13:16.669Z,39.70
2018-07-26T16:16:01.121Z,40.70
2018-07-26T16:18:29.873Z,41.70
2018-07-26T16:20:58.794Z,42.30
2018-07-26T16:23:27.576Z,42.90
2018-07-26T16:26:11.004Z,43.40
2018-07-26T16:28:40.095Z,43.60
2018-07-26T16:31:08.829Z,44.10
2018-07-26T16:33:38.586Z,44.10
2018-07-26T16:36:07.513Z,44.50
2018-07-26T16:38:36.209Z,44.60
2018-07-26T16:41:05.169Z,44.70
2018-07-26T16:43:39.765Z,44.70
2018-07-26T16:46:08.662Z,45.00
2018-07-26T16:51:11.608Z,44.80
2018-07-26T16:53:40.311Z,45.20
2018-07-26T16:56:09.085Z,45.40
2018-07-26T16:58:38.928Z,45.80
2018-07-26T17:01:07.550Z,46.10
2018-07-26T17:03:36.341Z,46.30
2018-07-26T17:06:05.087Z,46.20
2018-07-26T17:08:33.820Z,45.80
2018-07-26T17:11:03.625Z,45.90
2018-07-26T17:13:32.330Z,46.00
2018-07-26T17:16:01.006Z,45.80
2018-07-26T17:21:24.337Z,46.30
2018-07-26T17:23:53.023Z,46.20
2018-07-26T17:26:21.830Z,46.20
2018-07-26T17:28:50.850Z,46.20
2018-07-26T17:31:19.586Z,46.30
2018-07-26T17:34:03.990Z,46.50
2018-07-26T17:36:32.757Z,46.30
2018-07-26T17:39:01.620Z,45.90
2018-07-26T17:41:30.347Z,45.70
2018-07-26T17:43:59.061Z,45.70
2018-07-26T17:46:27.798Z,45.70
2018-07-26T17:48:56.483Z,45.50
2018-07-26T17:51:25.734Z,45.80
2018-07-26T17:53:54.514Z,45.90
2018-07-26T17:56:23.235Z,46.00
2018-07-26T17:58:52.108Z,45.70
2018-07-26T18:03:49.321Z,45.50
2018-07-26T18:06:20.174Z,45.40
2018-07-26T18:08:48.850Z,45.00
2018-07-26T18:11:17.613Z,44.70
2018-07-26T18:13:46.305Z,44.50
2018-07-26T18:16:15.147Z,44.00
2018-07-26T18:18:43.905Z,43.60
2018-07-26T18:23:41.341Z,42.80
2018-07-26T18:26:10.289Z,42.60
2018-07-26T18:28:39.484Z,42.30
2018-07-26T18:31:08.196Z,42.00
2018-07-26T18:33:38.165Z,41.80
2018-07-26T18:36:08.029Z,41.70
2018-07-26T18:38:36.737Z,41.20
2018-07-26T18:41:05.601Z,40.40
2018-07-26T18:46:03.785Z,38.40
2018-07-26T18:51:00.865Z,36.70
2018-07-26T18:53:29.559Z,36.00
2018-07-26T18:56:00.816Z,35.30
2018-07-26T18:58:29.561Z,34.70
2018-07-26T19:00:58.326Z,34.20
2018-07-26T19:03:27.013Z,33.90
2018-07-26T19:05:55.735Z,33.50
2018-07-26T19:08:28.089Z,33.20
2018-07-26T19:10:56.832Z,32.90
2018-07-26T19:13:26.357Z,32.70
2018-07-26T19:15:55.046Z,32.50
2018-07-26T19:18:23.789Z,32.30
2018-07-26T19:20:57.583Z,32.10
2018-07-26T19:23:26.334Z,32.00
2018-07-26T19:25:55.125Z,31.80
2018-07-26T19:28:24.085Z,31.60
2018-07-26T19:30:52.813Z,31.50
2018-07-26T19:33:21.467Z,31.30
2018-07-26T19:35:50.269Z,31.20
2018-07-26T19:38:19.065Z,31.10
2018-07-26T19:40:47.761Z,31.00
2018-07-26T19:43:16.464Z,30.80
2018-07-26T19:45:45.211Z,30.70
2018-07-26T19:48:13.942Z,30.60
2018-07-26T19:50:42.653Z,30.50
2018-07-26T19:53:11.415Z,30.40
2018-07-26T19:55:40.149Z,30.30
2018-07-26T19:58:08.916Z,30.30
2018-07-26T20:00:37.701Z,30.20
2018-07-26T20:03:06.398Z,30.00
2018-07-26T20:05:35.137Z,30.00
2018-07-26T20:08:04.039Z,29.90
2018-07-26T20:15:38.475Z,29.60
2018-07-26T20:18:07.265Z,29.50
2018-07-26T20:20:35.980Z,29.40
2018-07-26T20:23:04.690Z,29.40
2018-07-26T20:25:33.419Z,29.30
2018-07-26T20:28:02.075Z,29.20
2018-07-26T20:30:30.793Z,29.10
2018-07-26T20:32:59.575Z,29.00
2018-07-26T20:35:29.362Z,28.90
2018-07-26T20:37:58.170Z,28.90
2018-07-26T20:40:30.134Z,28.80
2018-07-26T20:42:58.834Z,28.80
2018-07-26T20:45:27.564Z,28.70
2018-07-26T20:47:56.314Z,28.70
2018-07-26T20:52:53.605Z,28.50
2018-07-26T20:55:22.376Z,28.50
2018-07-26T20:57:51.117Z,28.40
2018-07-26T21:00:19.942Z,28.30
2018-07-26T21:02:48.675Z,28.30
2018-07-26T21:05:17.384Z,28.20
2018-07-26T21:07:46.101Z,28.10
2018-07-26T21:10:18.825Z,28.10
2018-07-26T21:12:47.554Z,28.00
2018-07-26T21:15:16.269Z,28.00
2018-07-26T21:17:45.156Z,27.90
2018-07-26T21:20:13.886Z,27.90
2018-07-26T21:22:53.632Z,27.80
2018-07-26T21:25:22.383Z,27.80
2018-07-26T21:27:51.073Z,27.70
2018-07-26T21:30:19.865Z,27.70
2018-07-26T21:32:55.120Z,27.70
2018-07-26T21:35:28.796Z,27.60
2018-07-26T21:37:57.516Z,27.50
2018-07-26T21:40:26.372Z,27.50
2018-07-26T21:42:55.076Z,27.50
2018-07-26T21:45:23.771Z,27.40
2018-07-26T21:47:52.509Z,27.30
2018-07-26T21:50:21.293Z,27.30
2018-07-26T21:52:50.219Z,27.20
2018-07-26T21:57:51.701Z,27.20
2018-07-26T22:00:20.556Z,27.00
2018-07-26T22:02:49.316Z,26.90
2018-07-26T22:05:18.025Z,26.80
2018-07-26T22:07:47.106Z,26.60
2018-07-26T22:10:15.821Z,26.60
2018-07-26T22:12:44.527Z,26.50
2018-07-26T22:15:22.241Z,26.40
2018-07-26T22:17:50.979Z,26.30
2018-07-26T22:20:19.730Z,26.20
2018-07-26T22:22:48.413Z,26.20
2018-07-26T22:25:17.139Z,26.10
2018-07-26T22:27:45.845Z,26.00
2018-07-26T22:30:14.601Z,26.00
2018-07-26T22:32:43.358Z,25.90
2018-07-26T22:35:12.045Z,25.80
2018-07-26T22:37:46.981Z,25.80
2018-07-26T22:40:15.728Z,25.70
2018-07-26T22:42:44.404Z,25.60
2018-07-26T22:45:13.127Z,25.60
2018-07-26T22:47:41.821Z,25.60
2018-07-26T22:50:19.227Z,25.40
2018-07-26T22:52:47.893Z,25.40
2018-07-26T22:55:16.703Z,25.40
2018-07-26T22:57:45.499Z,25.30
2018-07-26T23:00:14.293Z,25.30
2018-07-26T23:02:43.001Z,25.20
2018-07-26T23:05:11.774Z,25.20
2018-07-26T23:07:43.630Z,25.10
2018-07-26T23:10:12.353Z,25.00
2018-07-26T23:12:41.365Z,25.00
2018-07-26T23:15:11.383Z,24.90
2018-07-26T23:17:40.520Z,24.80
2018-07-26T23:20:15.922Z,24.80
2018-07-26T23:22:44.669Z,24.70
2018-07-26T23:25:13.417Z,24.70
2018-07-26T23:27:42.167Z,24.60
2018-07-26T23:30:12.453Z,24.60
2018-07-26T23:32:41.242Z,24.50
2018-07-26T23:35:10.153Z,24.50
2018-07-26T23:37:38.933Z,24.50
2018-07-26T23:40:09.133Z,24.40
2018-07-26T23:42:38.413Z,24.30
2018-07-26T23:45:07.305Z,24.30
2018-07-26T23:47:42.729Z,24.20
2018-07-26T23:50:11.441Z,24.20
2018-07-26T23:52:40.249Z,24.20
2018-07-26T23:55:08.989Z,24.20
2018-07-26T23:57:37.737Z,24.10
